Time;durP1;ratioP1;P1;durP2;ratioP2;P2;SDS_P1;SDS_P2;PMS_P1;PMS_P2;Temp;Humidity;BMP_temperature;BMP_pressure;BME280_temperature;BME280_humidity;BME280_pressure;Samples;Min_cycle;Max_cycle;Signal;HPM_P1;HPM_P2
2021/08/16 00:00:43;;;;;;;6.80;2.60;;;19.50;99.90;;;20.66;71.85;99924.81;6156266;23;20013;-85
2021/08/16 00:03:10;;;;;;;8.13;2.70;;;19.50;99.90;;;20.66;71.77;99916.31;6157840;23;20460;-86
2021/08/16 00:05:36;;;;;;;5.28;2.40;;;19.30;99.90;;;20.48;72.94;99923.22;6158970;23;20038;-86
2021/08/16 00:08:10;;;;;;;5.03;2.50;;;19.30;99.90;;;20.40;73.42;99924.63;6131778;23;20043;-87
2021/08/16 00:10:38;;;;;;;4.18;2.35;;;19.20;99.90;;;20.42;73.80;99916.47;6131281;23;20053;-85
2021/08/16 00:13:04;;;;;;;10.77;3.25;;;19.20;99.90;;;20.29;74.39;99918.41;6131731;23;20332;-86
2021/08/16 00:15:30;;;;;;;5.70;2.85;;;19.20;99.90;;;20.36;74.36;99914.59;6132628;23;20010;-87
2021/08/16 00:17:59;;;;;;;8.50;3.17;;;19.10;99.90;;;20.26;75.00;99902.28;6158065;23;20009;-86
2021/08/16 00:20:26;;;;;;;8.88;3.67;;;19.00;99.90;;;20.16;75.59;99906.16;6131233;23;20029;-87
2021/08/16 00:22:52;;;;;;;9.57;4.10;;;18.90;99.90;;;19.90;76.59;99890.16;6158366;23;20097;-88
2021/08/16 00:25:18;;;;;;;8.20;3.50;;;18.80;99.90;;;19.91;76.75;99898.22;6157365;23;20361;-85
2021/08/16 00:27:44;;;;;;;7.35;3.17;;;18.70;99.90;;;19.82;76.92;99897.22;6130853;23;20462;-88
2021/08/16 00:30:12;;;;;;;7.03;3.00;;;18.70;99.90;;;19.56;77.74;99892.53;6131232;23;20014;-87
2021/08/16 00:32:38;;;;;;;6.90;3.75;;;18.50;99.90;;;19.64;76.89;99885.50;6157163;23;20045;-88
2021/08/16 00:35:05;;;;;;;6.75;3.13;;;18.50;99.90;;;19.69;77.07;99887.81;6158333;23;20006;-86
2021/08/16 00:37:31;;;;;;;7.80;3.92;;;18.60;99.90;;;19.78;76.79;99896.50;6131110;23;20100;-88
2021/08/16 00:39:56;;;;;;;10.70;4.18;;;18.50;99.90;;;19.70;77.15;99883.75;6131557;23;20013;-86
2021/08/16 00:42:23;;;;;;;7.10;4.30;;;18.50;99.90;;;19.73;77.40;99894.19;6158266;23;20028;-88
2021/08/16 00:44:49;;;;;;;6.80;3.65;;;18.60;99.90;;;19.73;77.27;99888.53;6131790;23;20041;-88
2021/08/16 00:47:18;;;;;;;7.85;3.95;;;18.50;99.90;;;19.59;77.79;99880.34;6131693;23;20009;-88
2021/08/16 00:49:44;;;;;;;7.38;4.13;;;18.40;99.90;;;19.52;78.23;99886.97;6132805;23;20014;-87
2021/08/16 00:52:11;;;;;;;6.15;4.53;;;18.40;99.90;;;19.40;78.93;99882.75;6131566;23;20013;-85
2021/08/16 00:54:39;;;;;;;9.80;4.90;;;18.30;99.90;;;19.49;79.23;99884.22;6131335;23;20005;-86
2021/08/16 00:57:06;;;;;;;6.90;4.22;;;18.20;99.90;;;19.32;80.19;99891.81;6132013;23;20005;-87
2021/08/16 00:59:33;;;;;;;10.95;3.75;;;18.20;99.90;;;19.36;80.32;99890.47;6131597;23;20100;-87
2021/08/16 01:01:59;;;;;;;10.25;4.15;;;18.20;99.90;;;19.33;80.55;99891.34;6131496;23;20013;-86
2021/08/16 01:04:30;;;;;;;9.02;3.85;;;18.20;99.90;;;19.30;80.62;99885.75;6131049;23;20020;-86
2021/08/16 01:06:56;;;;;;;9.60;4.47;;;18.20;99.90;;;19.35;80.67;99877.59;6158425;23;20014;-86
2021/08/16 01:09:22;;;;;;;7.53;3.88;;;18.20;99.90;;;19.21;81.14;99883.53;6131480;23;20049;-87
2021/08/16 01:11:51;;;;;;;6.95;4.07;;;18.10;99.90;;;19.19;80.80;99874.69;6132011;23;20020;-86
2021/08/16 01:14:19;;;;;;;5.07;3.58;;;18.00;99.90;;;19.05;80.51;99880.59;6131653;23;20005;-87
2021/08/16 01:16:49;;;;;;;8.05;3.97;;;18.00;99.90;;;19.12;80.56;99888.16;6132085;23;20005;-89
2021/08/16 01:19:22;;;;;;;8.15;3.67;;;18.00;99.90;;;19.19;80.03;99886.00;6133492;23;20014;-88
2021/08/16 01:21:49;;;;;;;6.65;3.42;;;18.00;99.90;;;19.24;79.73;99896.81;6133758;23;20013;-89
2021/08/16 01:24:17;;;;;;;6.72;3.58;;;18.00;99.90;;;19.21;80.19;99885.56;6142475;23;20029;-84
2021/08/16 01:26:43;;;;;;;7.80;3.60;;;18.00;99.90;;;19.16;79.23;99881.22;6155297;23;20001;-83
2021/08/16 01:29:22;;;;;;;6.88;3.88;;;18.00;99.90;;;19.02;78.93;99889.97;6139049;23;20061;-86
2021/08/16 01:31:50;;;;;;;8.52;3.70;;;18.00;99.90;;;19.07;78.24;99892.28;6132376;23;20314;-86
2021/08/16 01:34:16;;;;;;;7.50;3.22;;;18.00;99.90;;;19.04;77.95;99895.97;6134741;23;20029;-88
2021/08/16 01:36:44;;;;;;;7.03;3.13;;;18.00;99.90;;;18.88;77.98;99893.88;6134208;23;20001;-88
2021/08/16 01:39:11;;;;;;;7.78;2.90;;;17.90;99.90;;;18.72;76.82;99890.16;6134639;23;20013;-89
2021/08/16 01:41:36;;;;;;;9.88;2.72;;;17.70;99.90;;;18.61;74.25;99900.84;6159403;23;20009;-88
2021/08/16 01:44:03;;;;;;;6.65;2.60;;;17.60;99.90;;;18.36;74.31;99906.91;6159432;23;20056;-88
2021/08/16 01:46:29;;;;;;;8.00;2.47;;;17.40;99.90;;;18.27;74.60;99901.75;6158567;23;20097;-90
2021/08/16 01:48:54;;;;;;;9.48;2.72;;;17.30;99.90;;;18.14;75.16;99911.28;6133681;23;20014;-90
2021/08/16 01:51:20;;;;;;;9.35;2.78;;;17.10;99.90;;;17.94;75.95;99914.00;6160597;23;20040;-84
2021/08/16 01:53:46;;;;;;;10.82;3.20;;;17.00;99.90;;;17.78;76.60;99911.00;6181762;23;20017;-82
2021/08/16 01:56:12;;;;;;;9.10;2.60;;;16.90;99.90;;;17.79;76.79;99921.06;6140183;23;20105;-91
2021/08/16 01:58:38;;;;;;;7.97;2.78;;;16.80;99.90;;;17.79;76.99;99918.22;6133184;23;20010;-88
2021/08/16 02:01:04;;;;;;;8.60;2.40;;;16.70;99.90;;;17.60;77.18;99911.22;6133178;23;20010;-87
2021/08/16 02:03:29;;;;;;;6.50;3.20;;;16.60;99.90;;;17.49;77.51;99912.56;6133504;23;20028;-87
2021/08/16 02:05:55;;;;;;;11.70;3.35;;;16.50;99.90;;;17.40;77.56;99915.91;6133694;23;20013;-91
2021/08/16 02:08:22;;;;;;;10.70;3.10;;;16.50;99.90;;;17.42;77.41;99919.09;6133516;23;20009;-87
2021/08/16 02:10:48;;;;;;;7.20;2.72;;;16.40;99.90;;;17.29;77.73;99912.41;6159886;23;20009;-83
2021/08/16 02:13:14;;;;;;;6.53;2.42;;;16.30;99.90;;;17.17;77.79;99910.94;6132997;23;20005;-85
2021/08/16 02:15:40;;;;;;;14.38;3.10;;;16.30;99.90;;;17.10;78.54;99905.38;6158625;23;20009;-89
2021/08/16 02:18:07;;;;;;;8.27;3.00;;;16.20;99.90;;;17.10;78.25;99905.38;6158235;23;20005;-83
2021/08/16 02:20:33;;;;;;;6.53;2.15;;;16.10;99.90;;;17.18;77.93;99906.88;6157200;23;20093;-88
2021/08/16 02:22:59;;;;;;;8.48;2.55;;;16.10;99.90;;;17.07;78.38;99902.59;6132254;23;20009;-88
2021/08/16 02:25:27;;;;;;;11.75;2.30;;;16.10;99.90;;;17.08;78.51;99913.44;6157028;23;20067;-88
2021/08/16 02:27:54;;;;;;;9.10;2.90;;;16.00;99.90;;;16.94;79.14;99899.50;6158918;23;20001;-86
2021/08/16 02:30:21;;;;;;;7.97;2.58;;;15.90;99.90;;;16.83;79.48;99901.63;6157383;23;20008;-88
2021/08/16 02:32:47;;;;;;;10.52;2.55;;;16.00;99.90;;;16.77;79.58;99901.28;6158352;23;20391;-86
2021/08/16 02:35:14;;;;;;;7.13;2.75;;;15.90;99.90;;;16.90;79.38;99898.72;6132769;23;20096;-88
2021/08/16 02:37:41;;;;;;;9.93;2.78;;;15.90;99.90;;;16.81;79.58;99893.59;6158773;23;20001;-87
2021/08/16 02:40:10;;;;;;;7.47;2.72;;;15.90;99.90;;;16.79;79.53;99907.28;6157789;23;20390;-86
2021/08/16 02:42:37;;;;;;;7.28;2.42;;;15.80;99.90;;;16.80;79.48;99902.47;6159188;23;20308;-90
2021/08/16 02:45:04;;;;;;;8.07;2.88;;;15.80;99.90;;;16.91;79.14;99908.00;6159670;23;20096;-88
2021/08/16 02:47:30;;;;;;;6.95;2.42;;;15.80;99.90;;;16.86;79.17;99901.59;6157691;23;20119;-88
2021/08/16 02:49:57;;;;;;;9.40;2.25;;;15.80;99.90;;;17.02;78.59;99901.00;6131223;23;20041;-88
2021/08/16 02:52:23;;;;;;;11.18;2.40;;;15.90;99.90;;;16.97;78.53;99900.69;6131906;23;20452;-87
2021/08/16 02:54:49;;;;;;;8.98;2.40;;;15.90;99.90;;;17.03;78.21;99896.19;6132421;23;20009;-88
2021/08/16 02:57:18;;;;;;;10.68;2.67;;;16.00;99.90;;;17.08;78.25;99902.16;6131742;23;20084;-88
2021/08/16 02:59:44;;;;;;;10.10;2.67;;;16.00;99.90;;;17.12;78.10;99897.28;6131494;23;20008;-88
2021/08/16 03:02:12;;;;;;;8.52;2.55;;;16.00;99.90;;;17.12;78.45;99894.44;6131937;23;20013;-87
2021/08/16 03:04:38;;;;;;;13.35;3.22;;;16.10;99.90;;;17.18;78.33;99883.50;6157907;23;20140;-83
2021/08/16 03:07:04;;;;;;;9.30;2.80;;;16.10;99.90;;;17.24;77.85;99885.44;6157529;23;20029;-86
2021/08/16 03:09:31;;;;;;;10.73;3.20;;;16.20;99.90;;;17.40;77.13;99882.81;6157146;23;20032;-87
2021/08/16 03:11:59;;;;;;;11.35;3.17;;;16.20;99.90;;;17.35;77.68;99888.13;6157549;23;20014;-89
2021/08/16 03:14:25;;;;;;;8.75;2.53;;;16.30;99.90;;;17.39;77.42;99884.06;6131545;23;20123;-86
2021/08/16 03:16:51;;;;;;;12.68;3.47;;;16.30;99.90;;;17.28;77.97;99877.72;6156583;23;20005;-88
2021/08/16 03:19:17;;;;;;;8.00;2.75;;;16.30;99.90;;;17.36;77.79;99875.63;6131941;23;20313;-86
2021/08/16 03:21:42;;;;;;;8.27;3.40;;;16.30;99.90;;;17.39;77.89;99886.06;6158379;23;20020;-88
2021/08/16 03:24:10;;;;;;;8.27;3.55;;;16.30;99.90;;;17.30;78.41;99880.94;6133239;23;20017;-87
2021/08/16 03:26:36;;;;;;;13.02;4.30;;;16.30;99.90;;;17.29;78.51;99879.34;6132507;23;20427;-87
2021/08/16 03:29:03;;;;;;;8.32;3.33;;;16.30;99.90;;;17.35;77.99;99871.19;6132208;23;20037;-85
2021/08/16 03:31:29;;;;;;;9.23;4.05;;;16.30;99.90;;;17.38;78.35;99884.47;6132957;23;20009;-89
2021/08/16 03:33:55;;;;;;;10.55;3.97;;;16.30;99.90;;;17.39;78.64;99886.88;6133626;23;20029;-87
2021/08/16 03:36:21;;;;;;;11.10;4.63;;;16.30;99.90;;;17.48;78.28;99883.53;6160412;23;20017;-91
2021/08/16 03:38:47;;;;;;;12.85;4.95;;;16.40;99.90;;;17.32;78.84;99886.97;6135100;23;20434;-88
2021/08/16 03:41:13;;;;;;;11.93;4.65;;;16.30;99.90;;;17.50;78.34;99892.38;6160834;23;20009;-88
2021/08/16 03:43:40;;;;;;;13.60;5.63;;;16.40;99.90;;;17.51;78.19;99896.81;6138362;23;20033;-90
2021/08/16 03:46:06;;;;;;;13.98;5.50;;;16.40;99.90;;;17.43;78.68;99892.47;6177664;23;20014;-87
2021/08/16 03:48:32;;;;;;;10.38;5.18;;;16.30;99.90;;;17.35;79.29;99897.41;6150811;23;20123;-88
2021/08/16 03:50:58;;;;;;;18.13;6.55;;;16.40;99.90;;;17.42;79.55;99895.72;6158666;23;20013;-89
2021/08/16 03:53:24;;;;;;;14.48;6.72;;;16.40;99.90;;;17.42;79.37;99895.72;6132032;23;20440;-89
2021/08/16 03:55:50;;;;;;;12.60;6.25;;;16.40;99.90;;;17.39;79.54;99895.34;6131788;23;20010;-87
2021/08/16 03:58:16;;;;;;;13.07;5.90;;;16.30;99.90;;;17.42;79.77;99888.06;6132103;23;20013;-89
2021/08/16 04:00:42;;;;;;;14.85;5.80;;;16.30;99.90;;;17.45;79.55;99904.13;6130535;23;20005;-87
2021/08/16 04:03:10;;;;;;;14.75;6.90;;;16.30;99.90;;;17.49;79.52;99895.63;6131369;23;20346;-86
2021/08/16 04:05:36;;;;;;;20.95;6.47;;;16.30;99.90;;;17.41;79.87;99886.44;6131615;23;20366;-87
2021/08/16 04:08:02;;;;;;;14.77;6.07;;;16.30;99.90;;;17.40;79.96;99896.94;6131470;23;20009;-88
2021/08/16 04:10:28;;;;;;;14.90;7.35;;;16.30;99.90;;;17.30;80.02;99891.44;6130873;23;20009;-85
2021/08/16 04:12:54;;;;;;;20.60;7.47;;;16.30;99.90;;;17.27;80.63;99893.06;6157000;23;20016;-85
2021/08/16 04:15:22;;;;;;;13.60;7.00;;;16.20;99.90;;;17.38;80.25;99890.13;6131238;23;20009;-85
2021/08/16 04:17:52;;;;;;;15.88;7.78;;;16.20;99.90;;;17.36;80.30;99898.22;6131447;23;20092;-88
2021/08/16 04:20:20;;;;;;;14.05;7.65;;;16.20;99.90;;;17.35;80.71;99903.06;6156764;23;20446;-84
2021/08/16 04:22:46;;;;;;;15.70;7.47;;;16.20;99.90;;;17.33;80.89;99894.22;6153764;23;20343;-90
2021/08/16 04:25:18;;;;;;;14.82;8.25;;;16.30;99.90;;;17.32;80.71;99905.91;6129165;23;20005;-89
2021/08/16 04:27:47;;;;;;;15.35;7.68;;;16.20;99.90;;;17.36;81.07;99898.22;6129727;23;20020;-89
2021/08/16 04:30:13;;;;;;;14.55;7.88;;;16.20;99.90;;;17.32;81.06;99897.44;6156773;23;20041;-90
2021/08/16 04:32:40;;;;;;;12.88;7.55;;;16.20;99.90;;;17.31;80.99;99898.66;6156435;23;20419;-90
2021/08/16 04:35:08;;;;;;;20.00;8.65;;;16.20;99.90;;;17.36;80.82;99899.03;6129368;23;20010;-89
2021/08/16 04:37:38;;;;;;;18.40;9.68;;;16.20;99.90;;;17.18;81.93;99901.22;6131169;23;20071;-88
2021/08/16 04:40:07;;;;;;;19.33;8.13;;;16.20;99.90;;;17.22;82.00;99893.53;6128951;23;20447;-89
2021/08/16 04:42:33;;;;;;;18.77;8.05;;;16.20;99.90;;;17.30;81.70;99888.63;6132196;23;20092;-87
2021/08/16 04:44:59;;;;;;;16.52;7.78;;;16.20;99.90;;;17.33;81.29;99885.75;6129805;23;20010;-86
2021/08/16 04:47:25;;;;;;;13.60;7.15;;;16.20;99.90;;;17.27;81.81;99883.81;6154277;23;20051;-87
2021/08/16 04:49:54;;;;;;;14.93;7.18;;;16.20;99.90;;;17.36;81.66;99890.53;6130484;23;20339;-87
2021/08/16 04:52:20;;;;;;;15.90;6.85;;;16.20;99.90;;;17.39;81.50;99895.34;6130778;23;20349;-88
2021/08/16 04:54:45;;;;;;;12.50;6.55;;;16.20;99.90;;;17.37;81.36;99899.78;6133120;23;20092;-88
2021/08/16 04:57:11;;;;;;;16.15;6.63;;;16.30;99.90;;;17.31;81.69;99893.00;6130925;23;20048;-89
2021/08/16 04:59:37;;;;;;;11.07;5.60;;;16.20;99.90;;;17.32;81.79;99892.59;6130767;23;20040;-88
2021/08/16 05:02:03;;;;;;;11.85;5.45;;;16.20;99.90;;;17.40;81.33;99877.16;6131319;23;20013;-87
2021/08/16 05:04:29;;;;;;;18.48;7.18;;;16.20;99.90;;;17.45;81.15;99884.38;6131490;23;20009;-85
2021/08/16 05:06:55;;;;;;;16.50;6.53;;;16.30;99.90;;;17.49;81.18;99887.97;6133100;23;20410;-87
2021/08/16 05:09:21;;;;;;;15.70;5.82;;;16.30;99.90;;;17.37;81.63;99882.84;6132959;23;20020;-87
2021/08/16 05:11:47;;;;;;;18.75;5.82;;;16.30;99.90;;;17.39;81.48;99886.06;6134567;23;20020;-85
2021/08/16 05:14:13;;;;;;;14.05;5.57;;;16.30;99.90;;;17.42;81.46;99893.69;6144401;23;20013;-90
2021/08/16 05:16:41;;;;;;;12.93;5.45;;;16.20;99.90;;;17.42;81.84;99887.25;6151144;23;20084;-89
2021/08/16 05:19:08;;;;;;;15.38;5.45;;;16.30;99.90;;;17.26;82.73;99899.13;6146999;23;20032;-86
2021/08/16 05:21:34;;;;;;;14.70;5.65;;;16.20;99.90;;;17.28;82.75;99897.50;6138275;23;20009;-86
2021/08/16 05:23:59;;;;;;;15.48;5.28;;;16.30;99.90;;;17.31;82.70;99893.81;6139761;23;20016;-88
2021/08/16 05:26:25;;;;;;;18.75;5.75;;;16.30;99.90;;;17.33;82.52;99899.88;6137947;23;20025;-86
2021/08/16 05:28:52;;;;;;;15.18;4.93;;;16.30;99.90;;;17.43;82.26;99898.13;6160756;23;20010;-88
2021/08/16 05:31:18;;;;;;;15.05;5.03;;;16.20;99.90;;;17.35;82.48;99888.13;6137057;23;20041;-88
2021/08/16 05:33:44;;;;;;;13.98;5.10;;;16.30;99.90;;;17.27;83.27;99890.22;6136600;23;20020;-88
2021/08/16 05:36:10;;;;;;;12.63;5.88;;;16.20;99.90;;;17.11;83.83;99884.41;6164059;23;20005;-88
2021/08/16 05:38:36;;;;;;;13.88;5.47;;;16.20;99.90;;;17.28;83.29;99893.88;6136419;23;20001;-88
2021/08/16 05:41:02;;;;;;;17.02;6.05;;;16.20;99.90;;;17.21;83.88;99889.09;6140401;23;20064;-87
2021/08/16 05:43:27;;;;;;;12.98;5.18;;;16.20;99.90;;;17.31;83.37;99881.72;6173798;23;20028;-85
2021/08/16 05:45:53;;;;;;;13.23;5.75;;;16.30;99.90;;;17.29;83.85;99889.81;6178270;23;19993;-87
2021/08/16 05:48:19;;;;;;;14.75;6.20;;;16.20;99.90;;;17.33;83.78;99894.22;6145315;23;20010;-86
2021/08/16 06:11:30;;;;;;;16.42;5.60;;;16.40;99.90;;;17.53;83.76;99880.22;6153163;23;20028;-89
2021/08/16 06:13:58;;;;;;;12.77;5.30;;;16.40;99.90;;;17.55;83.75;99869.34;6162811;23;20014;-88
2021/08/16 06:16:25;;;;;;;14.25;5.55;;;16.50;99.90;;;17.57;84.12;99861.25;6161881;23;20073;-88
2021/08/16 06:18:51;;;;;;;10.40;4.82;;;16.60;99.90;;;17.68;83.32;99873.22;6162500;23;20005;-87
2021/08/16 06:21:19;;;;;;;11.00;4.95;;;16.60;99.90;;;17.40;85.11;99874.34;6136959;23;20064;-85
2021/08/16 06:23:45;;;;;;;16.25;5.60;;;16.60;99.90;;;17.70;83.81;99875.59;6136715;23;20066;-87
2021/08/16 06:26:11;;;;;;;13.20;5.10;;;16.70;99.90;;;17.73;83.54;99881.19;6137315;23;20092;-88
2021/08/16 06:28:37;;;;;;;15.63;4.75;;;16.70;99.90;;;17.75;83.71;99881.59;6135511;23;20355;-84
2021/08/16 06:31:04;;;;;;;17.98;5.18;;;16.70;99.90;;;17.84;83.27;99876.22;6135513;23;20423;-85
2021/08/16 06:33:31;;;;;;;17.10;5.13;;;16.80;99.90;;;17.89;83.73;99883.38;6136217;23;20018;-88
2021/08/16 06:35:57;;;;;;;12.85;4.45;;;16.80;99.90;;;17.86;83.70;99875.75;6136168;23;20013;-89
2021/08/16 06:38:23;;;;;;;11.63;4.85;;;16.80;99.90;;;17.64;84.48;99869.63;6136229;23;20088;-87
2021/08/16 06:40:54;;;;;;;15.82;5.57;;;16.70;99.90;;;17.73;84.32;99860.63;6136005;23;20354;-90
2021/08/16 06:43:22;;;;;;;17.25;4.97;;;16.70;99.90;;;18.00;83.04;99864.25;6136251;23;20032;-86
2021/08/16 06:45:49;;;;;;;16.52;4.53;;;16.80;99.90;;;18.10;82.97;99880.25;6161743;23;20002;-90
2021/08/16 06:48:16;;;;;;;14.40;5.07;;;17.00;99.90;;;18.07;83.08;99877.47;6138547;23;20343;-90
2021/08/16 06:50:44;;;;;;;16.20;4.25;;;17.00;99.90;;;18.04;83.36;99876.31;6164044;23;20002;-88
2021/08/16 06:53:13;;;;;;;13.95;4.80;;;17.10;99.90;;;17.97;83.52;99876.41;6135426;23;20044;-88
2021/08/16 06:55:43;;;;;;;11.60;4.72;;;17.00;99.90;;;17.84;84.50;99873.38;6135680;23;20088;-89
2021/08/16 06:58:10;;;;;;;14.13;4.95;;;16.90;99.90;;;18.14;83.66;99875.31;6111314;23;20454;-86
2021/08/16 07:00:43;;;;;;;13.13;4.63;;;16.90;99.90;;;18.07;83.54;99874.66;6161576;23;20065;-88
2021/08/16 07:03:11;;;;;;;14.60;4.93;;;16.90;99.90;;;18.03;83.72;99880.34;6139139;23;20036;-87
2021/08/16 07:05:48;;;;;;;14.57;5.03;;;16.90;99.90;;;18.01;83.50;99877.16;6162082;23;20080;-86
2021/08/16 07:08:14;;;;;;;11.10;4.60;;;17.00;99.90;;;18.12;83.53;99882.63;6160538;23;20006;-86
2021/08/16 07:10:42;;;;;;;13.00;4.68;;;17.00;99.90;;;18.17;83.54;99882.94;6154111;23;20010;-88
2021/08/16 07:13:12;;;;;;;18.73;4.95;;;17.10;99.90;;;18.38;83.05;99882.63;6155752;23;20328;-85
2021/08/16 07:15:38;;;;;;;11.40;4.20;;;17.20;99.90;;;18.27;82.82;99890.44;6156659;23;20413;-88
2021/08/16 07:18:05;;;;;;;10.52;4.20;;;17.20;99.90;;;18.29;82.80;99892.88;6131994;23;20065;-85
2021/08/16 07:20:31;;;;;;;10.63;3.55;;;17.20;99.90;;;18.22;83.14;99890.94;6135033;23;20034;-86
2021/08/16 07:22:57;;;;;;;13.35;4.13;;;17.10;99.90;;;18.40;82.56;99899.13;6159640;23;20089;-85
2021/08/16 07:25:24;;;;;;;11.07;3.75;;;17.30;99.90;;;18.39;82.63;99894.72;6134954;23;20080;-86
2021/08/16 07:27:53;;;;;;;12.82;3.80;;;17.30;99.90;;;18.57;81.69;99889.59;6131718;23;20239;-88
2021/08/16 07:30:19;;;;;;;6.78;3.10;;;17.40;99.90;;;18.76;81.40;99905.00;6134376;23;20024;-88
2021/08/16 07:32:46;;;;;;;8.63;3.45;;;17.50;99.90;;;18.78;81.00;99896.91;6135339;23;20006;-87
2021/08/16 07:35:11;;;;;;;8.73;3.45;;;17.60;99.90;;;18.71;80.48;99902.69;6134754;23;20013;-88
2021/08/16 07:37:38;;;;;;;11.80;3.67;;;17.70;99.90;;;18.78;80.40;99902.56;6134287;23;20014;-86
2021/08/16 07:40:05;;;;;;;8.35;2.95;;;17.70;99.90;;;18.99;80.50;99905.00;6160558;23;20010;-87
2021/08/16 07:42:31;;;;;;;9.77;3.75;;;17.70;99.90;;;18.87;80.15;99895.13;6135655;23;20352;-86
2021/08/16 07:44:57;;;;;;;10.43;3.47;;;17.80;99.90;;;18.81;79.80;99901.69;6159588;23;20013;-84
2021/08/16 07:47:23;;;;;;;9.18;3.25;;;17.80;99.90;;;18.87;80.13;99897.13;6158966;23;20041;-89
2021/08/16 07:49:49;;;;;;;15.32;3.63;;;17.80;99.90;;;18.84;79.55;99903.66;6135062;23;20005;-86
2021/08/16 07:52:15;;;;;;;11.40;3.38;;;17.80;99.90;;;19.06;79.05;99902.03;6133620;23;20432;-88
2021/08/16 07:54:44;;;;;;;9.48;3.35;;;17.90;99.90;;;18.93;78.78;99910.34;6130132;23;20016;-87
2021/08/16 07:57:10;;;;;;;6.57;2.50;;;17.90;99.90;;;18.78;78.99;99908.22;6131131;23;20006;-86
2021/08/16 07:59:36;;;;;;;8.38;2.65;;;17.80;99.90;;;18.77;79.76;99906.63;6133946;23;20009;-87
2021/08/16 08:02:03;;;;;;;9.38;3.20;;;17.70;99.90;;;18.85;79.22;99902.41;6139084;23;20336;-88
2021/08/16 08:04:28;;;;;;;9.70;3.63;;;17.70;99.90;;;19.00;78.76;99903.75;6138157;23;20010;-87
2021/08/16 08:06:54;;;;;;;6.97;2.90;;;17.80;99.90;;;19.30;78.16;99906.38;6145014;23;20008;-84
2021/08/16 08:09:21;;;;;;;13.35;3.13;;;18.00;99.90;;;19.54;77.51;99904.31;6152569;23;20014;-90
2021/08/16 08:11:47;;;;;;;9.45;3.15;;;18.10;99.90;;;19.75;75.82;99900.22;6161215;23;20018;-86
2021/08/16 08:14:13;;;;;;;7.28;2.78;;;18.40;99.90;;;19.82;75.26;99895.19;6129854;23;20069;-88
2021/08/16 08:16:39;;;;;;;10.70;2.85;;;18.60;99.90;;;20.47;72.69;99892.47;6129543;23;20484;-86
2021/08/16 08:19:05;;;;;;;9.10;2.67;;;19.00;99.90;;;20.72;72.51;99898.28;6129415;23;20005;-87
2021/08/16 08:21:31;;;;;;;8.90;2.80;;;19.30;99.90;;;20.86;70.40;99902.81;6129523;23;20010;-87
2021/08/16 08:23:58;;;;;;;14.30;3.70;;;19.50;99.90;;;20.69;71.86;99907.69;6129306;23;20077;-87
2021/08/16 08:26:23;;;;;;;16.42;2.72;;;19.50;99.90;;;20.49;71.99;99899.28;6129967;23;20060;-85
2021/08/16 08:28:49;;;;;;;7.43;2.13;;;19.50;99.90;;;20.62;71.97;99909.91;6134800;23;20047;-83
2021/08/16 08:31:15;;;;;;;7.15;2.90;;;19.50;99.90;;;20.44;71.81;99911.16;6157322;23;20093;-84
2021/08/16 08:33:41;;;;;;;6.47;2.67;;;19.50;99.90;;;20.71;71.99;99919.38;6134368;23;20013;-88
2021/08/16 08:36:08;;;;;;;8.75;2.72;;;19.40;99.90;;;20.74;71.99;99921.34;6135522;23;20018;-87
2021/08/16 08:38:34;;;;;;;7.90;3.17;;;19.40;99.90;;;20.46;71.43;99914.34;6135392;23;20428;-85
2021/08/16 08:41:06;;;;;;;11.43;2.92;;;19.40;99.90;;;20.59;71.61;99914.44;6157201;23;20436;-88
2021/08/16 08:43:45;;;;;;;9.10;2.65;;;19.50;99.90;;;20.84;70.87;99910.94;6130840;23;20006;-87
2021/08/16 08:46:25;;;;;;;6.85;2.92;;;19.60;99.90;;;21.89;67.92;99921.41;6132616;23;20036;-85
2021/08/16 08:48:59;;;;;;;11.70;2.70;;;20.40;99.90;;;22.11;65.79;99906.50;6132349;23;20009;-86
2021/08/16 08:51:25;;;;;;;5.90;2.28;;;20.60;99.90;;;22.02;65.65;99919.38;6133393;23;20010;-84
2021/08/16 08:54:22;;;;;;;5.82;2.58;;;20.80;99.90;;;21.94;66.04;99925.72;6157816;23;20002;-88
2021/08/16 08:56:49;;;;;;;7.97;2.65;;;20.80;99.90;;;21.91;66.47;99915.25;6130051;23;20010;-85
2021/08/16 08:59:23;;;;;;;5.88;2.75;;;20.80;99.90;;;21.82;66.79;99918.75;6131182;23;20006;-87
2021/08/16 09:01:59;;;;;;;8.95;2.42;;;20.70;99.90;;;21.98;67.10;99918.69;6129744;23;20017;-87
2021/08/16 09:04:26;;;;;;;;;;;20.70;99.90;;;21.61;66.60;99925.03;6130925;23;20005;-87
2021/08/16 09:06:52;;;;;;;9.27;2.47;;;20.50;99.90;;;21.70;66.33;99928.03;6131890;23;19909;-87
2021/08/16 09:09:22;;;;;;;8.13;2.45;;;20.40;99.90;;;21.28;67.68;99918.72;6161148;23;20038;-89
2021/08/16 09:11:51;;;;;;;9.10;2.78;;;20.20;99.90;;;21.06;69.42;99922.56;6134226;23;20061;-89
2021/08/16 09:14:20;;;;;;;11.00;2.95;;;19.90;99.90;;;20.65;70.43;99920.38;6130749;23;20014;-89
2021/08/16 09:16:48;;;;;;;5.93;2.72;;;19.60;99.90;;;20.70;71.12;99917.00;6132710;23;20006;-89
2021/08/16 09:19:24;;;;;;;7.55;2.85;;;19.50;99.90;;;20.55;70.96;99924.31;6161692;23;20120;-89
2021/08/16 09:22:09;;;;;;;5.68;2.53;;;19.30;99.90;;;20.47;72.00;99918.78;6141413;23;20002;-86
2021/08/16 09:24:36;;;;;;;6.47;2.63;;;19.30;99.90;;;20.59;71.00;99913.63;6132553;23;20010;-87
2021/08/16 09:27:10;;;;;;;7.53;2.50;;;19.40;99.90;;;20.82;70.89;99919.94;6135550;23;20070;-87
2021/08/16 09:29:50;;;;;;;6.40;2.97;;;19.50;99.90;;;20.82;70.23;99921.97;6162249;23;20010;-88
2021/08/16 09:32:17;;;;;;;9.48;2.65;;;19.60;99.90;;;20.97;69.51;99915.47;6134146;23;20061;-87
2021/08/16 09:34:49;;;;;;;6.70;2.28;;;19.70;99.90;;;20.92;69.48;99918.03;6133110;23;20006;-85
2021/08/16 09:37:26;;;;;;;8.38;2.78;;;19.80;99.90;;;21.29;68.25;99914.59;6134351;23;20053;-87
2021/08/16 09:40:42;;;;;;;6.40;2.63;;;20.10;99.90;;;21.55;66.42;99915.47;6131189;23;20009;-89
2021/08/16 09:43:08;;;;;;;4.95;2.40;;;20.30;99.90;;;22.05;66.36;99906.28;6133058;23;20037;-87
2021/08/16 09:45:39;;;;;;;6.63;2.20;;;20.60;99.90;;;21.79;68.11;99918.84;6131474;23;20118;-86
2021/08/16 09:48:18;;;;;;;6.72;2.38;;;20.50;99.90;;;20.91;69.48;99922.13;6156874;23;20098;-89
2021/08/16 09:50:53;;;;;;;7.22;2.42;;;20.10;99.90;;;21.02;71.16;99925.47;6156522;23;20045;-87
2021/08/16 09:53:24;;;;;;;5.63;2.72;;;19.80;99.90;;;20.55;72.55;99922.22;6132128;23;20037;-87
2021/08/16 09:56:00;;;;;;;6.70;2.63;;;19.60;99.90;;;20.63;73.59;99918.00;6130879;23;20140;-88
2021/08/16 09:58:27;;;;;;;9.00;2.83;;;19.60;99.90;;;20.60;72.45;99924.56;6130850;23;20002;-88
2021/08/16 10:00:59;;;;;;;9.93;2.65;;;19.60;99.90;;;20.99;72.06;99923.53;6131360;23;20009;-86
2021/08/16 10:03:28;;;;;;;9.02;2.28;;;19.60;99.90;;;20.88;72.27;99912.47;6133942;23;20010;-88
2021/08/16 10:05:56;;;;;;;7.82;2.60;;;19.70;99.90;;;20.73;72.37;99922.59;6159102;23;20009;-87
2021/08/16 10:08:49;;;;;;;9.10;2.47;;;19.70;99.90;;;21.05;71.46;99924.59;6134367;23;20025;-88
2021/08/16 10:11:22;;;;;;;7.80;2.45;;;19.80;99.90;;;20.85;74.93;99907.69;6135806;23;20014;-87
2021/08/16 10:14:02;;;;;;;6.80;2.42;;;19.70;99.90;;;20.62;76.55;99910.72;6135568;23;20010;-88
2021/08/16 10:16:53;;;;;;;;;;;;;;;;;;;;;
2021/08/16 10:19:34;;;;;;;6.63;2.58;;;19.30;99.90;;;20.63;77.19;99920.81;6134166;23;20036;-88
2021/08/16 10:22:05;;;;;;;7.80;2.90;;;19.40;99.90;;;20.98;77.02;99917.06;6132240;23;20005;-89
2021/08/16 10:24:31;;;;;;;9.95;2.72;;;19.60;99.90;;;21.16;74.75;99915.81;6133238;23;20017;-88
2021/08/16 10:27:39;;;;;;;8.30;2.80;;;19.80;99.90;;;20.71;78.29;99924.28;6133782;23;20014;-88
2021/08/16 10:30:20;;;;;;;;;;;19.60;99.90;;;20.15;80.82;99934.94;6152508;23;20032;-89
2021/08/16 10:33:03;;;;;;;8.75;2.90;;;19.30;99.90;;;19.89;84.89;99942.41;6161625;23;19916;-86
2021/08/16 10:36:04;;;;;;;7.82;3.20;;;18.90;99.90;;;19.68;87.97;99948.53;6147983;23;20064;-87
2021/08/16 10:39:15;;;;;;;11.43;3.38;;;18.50;99.90;;;19.26;92.31;99950.97;6169837;23;20006;-88
2021/08/16 10:42:16;;;;;;;8.80;3.70;;;18.20;99.90;;;18.84;95.65;99966.72;6166861;23;20010;-86
2021/08/16 10:45:03;;;;;;;7.82;3.20;;;17.80;99.90;;;18.54;97.43;99958.31;6146009;23;20017;-89